createdAt,value
2023-01-27T00:00:20.332Z,4.70
2023-01-27T00:02:47.471Z,4.70
2023-01-27T00:05:16.087Z,4.70
2023-01-27T00:07:46.854Z,4.70
2023-01-27T00:10:16.072Z,4.70
2023-01-27T00:13:02.865Z,4.70
2023-01-27T00:15:31.243Z,4.70
2023-01-27T00:17:58.211Z,4.70
2023-01-27T00:20:44.189Z,4.60
2023-01-27T00:23:37.830Z,4.60
2023-01-27T00:26:06.996Z,4.60
2023-01-27T00:28:38.420Z,4.50
2023-01-27T00:31:08.156Z,4.50
2023-01-27T00:33:35.084Z,4.50
2023-01-27T00:36:04.617Z,4.50
2023-01-27T00:38:41.918Z,4.50
2023-01-27T00:41:21.299Z,4.50
2023-01-27T00:43:53.786Z,4.50
2023-01-27T00:46:23.024Z,4.60
2023-01-27T00:48:51.824Z,4.60
2023-01-27T00:51:19.686Z,4.60
2023-01-27T00:53:46.913Z,4.60
2023-01-27T00:56:14.127Z,4.60
2023-01-27T00:58:41.102Z,4.60
2023-01-27T01:01:11.511Z,4.60
2023-01-27T01:03:38.355Z,4.60
2023-01-27T01:06:08.835Z,4.60
2023-01-27T01:08:36.994Z,4.60
2023-01-27T01:11:05.365Z,4.50
2023-01-27T01:13:32.594Z,4.60
2023-01-27T01:16:06.220Z,4.50
2023-01-27T01:18:33.630Z,4.60
2023-01-27T01:21:00.647Z,4.60
2023-01-27T01:23:29.213Z,4.60
2023-01-27T01:25:57.388Z,4.60
2023-01-27T01:28:25.442Z,4.50
2023-01-27T01:30:52.847Z,4.50
2023-01-27T01:33:19.689Z,4.60
2023-01-27T01:35:46.520Z,4.60
2023-01-27T01:38:13.706Z,4.60
2023-01-27T01:40:44.503Z,4.60
2023-01-27T01:43:22.861Z,4.60
2023-01-27T01:45:53.353Z,4.60
2023-01-27T01:48:32.210Z,4.70
2023-01-27T01:51:01.004Z,4.70
2023-01-27T01:53:35.920Z,4.70
2023-01-27T01:56:12.104Z,4.60
2023-01-27T01:58:39.645Z,4.60
2023-01-27T02:01:07.257Z,4.50
2023-01-27T02:03:37.295Z,4.50
2023-01-27T02:06:05.315Z,4.50
2023-01-27T02:08:42.317Z,4.50
2023-01-27T02:11:10.460Z,4.50
2023-01-27T02:13:40.994Z,4.50
2023-01-27T02:16:09.195Z,4.50
2023-01-27T02:18:37.273Z,4.60
2023-01-27T02:21:05.103Z,4.60
2023-01-27T02:23:40.139Z,4.60
2023-01-27T02:26:15.408Z,4.60
2023-01-27T02:28:42.379Z,4.70
2023-01-27T02:31:09.394Z,4.60
2023-01-27T02:33:36.375Z,4.60
2023-01-27T02:36:06.695Z,4.60
2023-01-27T02:38:37.113Z,4.70
2023-01-27T02:41:16.951Z,4.60
2023-01-27T02:43:43.798Z,4.60
2023-01-27T02:46:10.659Z,4.50
2023-01-27T02:48:37.445Z,4.50
2023-01-27T02:51:04.418Z,4.60
2023-01-27T02:53:31.624Z,4.50
2023-01-27T02:55:58.419Z,4.50
2023-01-27T02:58:25.286Z,4.60
2023-01-27T03:00:52.227Z,4.60
2023-01-27T03:03:19.167Z,4.60
2023-01-27T03:05:46.332Z,4.60
2023-01-27T03:08:13.223Z,4.50
2023-01-27T03:10:40.038Z,4.50
2023-01-27T03:13:06.986Z,4.70
2023-01-27T03:15:52.822Z,4.40
2023-01-27T03:18:19.755Z,4.40
2023-01-27T03:20:48.632Z,4.40
2023-01-27T03:23:18.975Z,4.40
2023-01-27T03:25:48.090Z,4.40
2023-01-27T03:28:15.453Z,4.40
2023-01-27T03:30:42.508Z,4.40
2023-01-27T03:33:09.639Z,4.40
2023-01-27T03:35:48.404Z,4.30
2023-01-27T03:38:34.939Z,4.30
2023-01-27T03:41:23.808Z,4.20
2023-01-27T03:44:09.091Z,4.20
2023-01-27T03:46:35.845Z,4.30
2023-01-27T03:49:02.671Z,4.30
2023-01-27T03:51:29.517Z,4.40
2023-01-27T03:53:56.360Z,4.30
2023-01-27T03:56:23.249Z,4.20
2023-01-27T03:58:50.760Z,4.30
2023-01-27T04:01:23.042Z,4.30
2023-01-27T04:04:09.862Z,4.40
2023-01-27T04:06:55.037Z,4.40
2023-01-27T04:09:36.129Z,4.30
2023-01-27T04:12:05.763Z,4.30
2023-01-27T04:14:35.645Z,4.30
2023-01-27T04:17:04.984Z,4.30
2023-01-27T04:19:32.877Z,4.20
2023-01-27T04:22:00.835Z,4.30
2023-01-27T04:24:28.064Z,4.20
2023-01-27T04:27:09.635Z,4.30
2023-01-27T04:29:40.963Z,4.30
2023-01-27T04:32:10.066Z,4.30
2023-01-27T04:34:37.430Z,4.30
2023-01-27T04:37:05.852Z,4.30
2023-01-27T04:39:33.259Z,4.20
2023-01-27T04:42:00.460Z,4.20
2023-01-27T04:44:27.283Z,4.20
2023-01-27T04:46:57.141Z,4.20
2023-01-27T04:49:26.539Z,4.20
2023-01-27T04:51:53.636Z,4.20
2023-01-27T04:54:20.449Z,4.20
2023-01-27T04:57:03.575Z,4.30
2023-01-27T04:59:30.748Z,4.20
2023-01-27T05:01:58.045Z,4.20
2023-01-27T05:04:26.702Z,4.10
2023-01-27T05:06:54.165Z,4.10
2023-01-27T05:09:20.988Z,4.20
2023-01-27T05:11:47.760Z,4.20
2023-01-27T05:14:14.723Z,4.20
2023-01-27T05:16:41.656Z,4.20
2023-01-27T05:19:09.338Z,4.20
2023-01-27T05:21:36.113Z,4.10
2023-01-27T05:24:03.042Z,4.10
2023-01-27T05:26:29.948Z,4.10
2023-01-27T05:28:58.199Z,4.00
2023-01-27T05:31:27.758Z,4.00
2023-01-27T05:33:55.984Z,4.00
2023-01-27T05:36:24.580Z,4.10
2023-01-27T05:38:51.756Z,4.00
2023-01-27T05:41:19.989Z,4.00
2023-01-27T05:43:51.282Z,4.00
2023-01-27T05:46:20.836Z,4.00
2023-01-27T05:48:53.228Z,4.00
2023-01-27T05:51:22.062Z,3.90
2023-01-27T05:53:49.422Z,3.90
2023-01-27T05:56:18.822Z,3.90
2023-01-27T05:58:46.162Z,4.00
2023-01-27T06:01:19.397Z,3.90
2023-01-27T06:03:46.988Z,3.90
2023-01-27T06:06:15.387Z,3.90
2023-01-27T06:08:42.822Z,3.90
2023-01-27T06:11:10.023Z,3.90
2023-01-27T06:13:38.715Z,3.90
2023-01-27T06:16:08.076Z,3.90
2023-01-27T06:18:35.239Z,3.90
2023-01-27T06:21:03.860Z,4.00
2023-01-27T06:23:31.357Z,3.90
2023-01-27T06:26:06.784Z,4.00
2023-01-27T06:28:33.557Z,4.00
2023-01-27T06:31:14.050Z,3.90
2023-01-27T06:33:41.434Z,3.90
2023-01-27T06:36:10.611Z,3.90
2023-01-27T06:38:37.969Z,3.80
2023-01-27T06:41:05.601Z,3.80
2023-01-27T06:43:32.460Z,3.70
2023-01-27T06:45:59.994Z,3.70
2023-01-27T06:48:27.660Z,3.80
2023-01-27T06:50:55.663Z,3.80
2023-01-27T06:53:22.878Z,3.70
2023-01-27T06:55:54.687Z,3.80
2023-01-27T06:58:21.470Z,3.80
2023-01-27T07:00:48.340Z,3.70
2023-01-27T07:03:17.683Z,3.60
2023-01-27T07:05:44.590Z,3.60
2023-01-27T07:08:12.331Z,3.60
2023-01-27T07:10:39.420Z,3.60
2023-01-27T07:13:07.093Z,3.70
2023-01-27T07:15:34.821Z,3.70
2023-01-27T07:18:02.259Z,3.60
2023-01-27T07:20:29.971Z,3.70
2023-01-27T07:22:58.305Z,3.70
2023-01-27T07:25:25.558Z,3.60
2023-01-27T07:27:53.037Z,3.60
2023-01-27T07:30:19.985Z,3.70
2023-01-27T07:32:46.821Z,3.70
2023-01-27T07:35:13.660Z,3.80
2023-01-27T07:37:40.669Z,3.70
2023-01-27T07:40:08.797Z,3.80
2023-01-27T07:42:35.712Z,3.70
2023-01-27T07:45:02.526Z,3.80
2023-01-27T07:47:29.360Z,3.70
2023-01-27T07:49:56.451Z,3.80
2023-01-27T07:52:23.267Z,3.90
2023-01-27T07:54:50.264Z,3.90
2023-01-27T07:57:17.037Z,3.90
2023-01-27T07:59:43.955Z,3.80
2023-01-27T08:02:11.480Z,3.70
2023-01-27T08:04:52.241Z,3.70
2023-01-27T08:07:20.289Z,3.60
2023-01-27T08:09:47.056Z,3.80
2023-01-27T08:12:13.820Z,3.70
2023-01-27T08:14:40.610Z,3.70
2023-01-27T08:17:07.411Z,3.80
2023-01-27T08:19:34.219Z,3.80
2023-01-27T08:22:01.013Z,3.80
2023-01-27T08:24:27.942Z,3.80
2023-01-27T08:26:54.950Z,3.80
2023-01-27T08:29:21.772Z,3.80
2023-01-27T08:31:48.543Z,3.80
2023-01-27T08:34:17.005Z,3.90
2023-01-27T08:36:43.809Z,3.80
2023-01-27T08:39:11.290Z,3.80
2023-01-27T08:41:38.689Z,3.80
2023-01-27T08:44:05.921Z,3.80
2023-01-27T08:46:33.002Z,3.80
2023-01-27T08:48:59.890Z,3.80
2023-01-27T08:51:27.189Z,3.70
2023-01-27T08:53:54.028Z,3.80
2023-01-27T08:56:20.966Z,3.80
2023-01-27T08:58:48.568Z,3.80
2023-01-27T09:01:16.760Z,3.80
2023-01-27T09:03:43.681Z,3.80
2023-01-27T09:06:12.669Z,3.70
2023-01-27T09:08:40.681Z,3.80
2023-01-27T09:11:17.539Z,3.70
2023-01-27T09:13:44.378Z,3.80
2023-01-27T09:16:11.322Z,3.80
2023-01-27T09:18:38.264Z,3.90
2023-01-27T09:21:06.391Z,3.90
2023-01-27T09:23:36.051Z,4.00
2023-01-27T09:26:02.967Z,4.10
2023-01-27T09:28:29.747Z,4.00
2023-01-27T09:31:00.234Z,4.00
2023-01-27T09:33:27.381Z,4.20
2023-01-27T09:36:00.917Z,4.10
2023-01-27T09:38:31.893Z,4.10
2023-01-27T09:41:52.951Z,4.20
2023-01-27T09:44:30.060Z,4.10
2023-01-27T09:46:58.854Z,4.10
2023-01-27T09:49:51.335Z,4.10
2023-01-27T09:52:45.475Z,4.20
2023-01-27T09:55:38.664Z,4.20
2023-01-27T09:58:20.529Z,4.20
2023-01-27T10:01:02.068Z,4.20
2023-01-27T10:03:43.376Z,4.10
2023-01-27T10:06:27.664Z,4.20
2023-01-27T10:09:32.698Z,4.20
2023-01-27T10:12:14.646Z,4.40
2023-01-27T10:14:52.357Z,4.30
2023-01-27T10:17:28.477Z,4.20
2023-01-27T10:20:26.218Z,4.10
2023-01-27T10:23:30.830Z,4.10
2023-01-27T10:26:19.344Z,4.20
2023-01-27T10:28:51.265Z,4.10
2023-01-27T10:31:34.165Z,4.00
2023-01-27T10:34:19.879Z,4.00
2023-01-27T10:37:11.248Z,3.90
2023-01-27T10:39:47.382Z,4.00
2023-01-27T10:42:14.098Z,4.00
2023-01-27T10:45:00.543Z,3.90
2023-01-27T10:47:48.569Z,3.90
2023-01-27T10:50:27.313Z,3.80
2023-01-27T10:53:05.246Z,3.80
2023-01-27T10:56:01.889Z,3.60
2023-01-27T10:58:51.500Z,3.70
2023-01-27T11:01:25.591Z,3.60
2023-01-27T11:04:00.996Z,3.60
2023-01-27T11:06:32.463Z,3.60
2023-01-27T11:09:24.612Z,3.70
2023-01-27T11:11:52.411Z,3.80
2023-01-27T11:14:38.877Z,3.90
2023-01-27T11:17:31.719Z,3.90
2023-01-27T11:20:19.607Z,3.80
2023-01-27T11:22:56.094Z,3.90
2023-01-27T11:25:47.322Z,4.10
2023-01-27T11:28:25.991Z,4.20
2023-01-27T11:30:57.407Z,4.20
2023-01-27T11:33:44.256Z,4.10
2023-01-27T11:36:11.175Z,4.20
2023-01-27T11:38:38.093Z,4.40
2023-01-27T11:41:05.125Z,4.40
2023-01-27T11:43:32.390Z,4.40
2023-01-27T11:46:04.852Z,4.50
2023-01-27T11:48:45.092Z,4.50
2023-01-27T11:51:21.449Z,4.60
2023-01-27T11:54:15.375Z,4.50
2023-01-27T11:56:46.847Z,4.40
2023-01-27T11:59:34.489Z,4.30
2023-01-27T12:02:07.536Z,4.30
2023-01-27T12:05:01.859Z,4.30
2023-01-27T12:07:41.883Z,4.30
2023-01-27T12:10:29.376Z,4.30
2023-01-27T12:13:01.959Z,4.30
2023-01-27T12:15:30.695Z,4.20
2023-01-27T12:18:02.823Z,4.30
2023-01-27T12:20:56.465Z,4.30
2023-01-27T12:23:39.708Z,4.50
2023-01-27T12:26:09.147Z,4.50
2023-01-27T12:28:41.854Z,4.40
2023-01-27T12:31:20.288Z,4.40
2023-01-27T12:34:03.776Z,4.20
2023-01-27T12:36:38.952Z,4.20
2023-01-27T12:39:07.727Z,4.30
2023-01-27T12:41:37.738Z,4.30
2023-01-27T12:44:19.306Z,4.30
2023-01-27T12:47:02.140Z,4.30
2023-01-27T12:49:38.797Z,4.10
2023-01-27T12:52:08.565Z,4.10
2023-01-27T12:54:36.129Z,4.10
2023-01-27T12:57:12.459Z,4.10
2023-01-27T12:59:57.343Z,4.00
2023-01-27T13:02:28.150Z,4.10
2023-01-27T13:05:00.279Z,4.10
2023-01-27T13:07:33.513Z,4.20
2023-01-27T13:10:06.765Z,4.20
2023-01-27T13:13:01.245Z,4.10
2023-01-27T13:15:32.053Z,4.00
2023-01-27T13:18:01.223Z,4.00
2023-01-27T13:20:45.536Z,4.00
2023-01-27T13:23:20.680Z,4.10
2023-01-27T13:26:13.099Z,4.00
2023-01-27T13:29:06.311Z,3.90
2023-01-27T13:31:50.802Z,3.80
2023-01-27T13:34:23.794Z,3.70
2023-01-27T13:36:58.221Z,3.60
2023-01-27T13:40:02.040Z,3.70
2023-01-27T13:42:46.520Z,3.70
2023-01-27T13:45:21.539Z,3.90
2023-01-27T13:48:02.137Z,3.90
2023-01-27T13:50:37.832Z,3.80
2023-01-27T13:53:06.091Z,3.80
2023-01-27T13:56:04.924Z,3.80
2023-01-27T13:59:12.302Z,3.80
2023-01-27T14:02:06.457Z,3.80
2023-01-27T14:04:55.970Z,3.90
2023-01-27T14:07:36.177Z,3.90
2023-01-27T14:10:33.877Z,3.90
2023-01-27T14:13:14.599Z,3.90
2023-01-27T14:15:52.781Z,3.90
2023-01-27T14:18:21.980Z,4.00
2023-01-27T14:21:11.832Z,4.00
2023-01-27T14:24:01.322Z,3.90
2023-01-27T14:26:50.517Z,3.80
2023-01-27T14:29:53.731Z,3.70
2023-01-27T14:32:46.966Z,3.70
2023-01-27T14:35:39.722Z,3.70
2023-01-27T14:38:19.671Z,3.60
2023-01-27T14:40:52.144Z,3.50
2023-01-27T14:43:38.402Z,3.40
2023-01-27T14:46:05.206Z,3.30
2023-01-27T14:49:00.030Z,3.30
2023-01-27T14:51:38.931Z,3.20
2023-01-27T14:54:24.489Z,3.30
2023-01-27T14:57:32.942Z,3.20
2023-01-27T15:00:30.900Z,3.10
2023-01-27T15:03:20.725Z,3.00
2023-01-27T15:06:05.938Z,3.00
2023-01-27T15:08:38.791Z,2.80
2023-01-27T15:11:31.784Z,2.70
2023-01-27T15:14:33.222Z,2.60
2023-01-27T15:17:29.711Z,2.60
2023-01-27T15:20:02.894Z,2.50
2023-01-27T15:22:37.855Z,2.50
2023-01-27T15:25:25.083Z,2.50
2023-01-27T15:27:53.882Z,2.50
2023-01-27T15:30:34.459Z,2.40
2023-01-27T15:33:01.774Z,2.50
2023-01-27T15:35:41.102Z,2.50
2023-01-27T15:38:18.907Z,2.50
2023-01-27T15:41:07.150Z,2.60
2023-01-27T15:43:39.836Z,2.50
2023-01-27T15:46:31.873Z,2.40
2023-01-27T15:49:00.652Z,2.60
2023-01-27T15:51:30.719Z,2.60
2023-01-27T15:53:59.985Z,2.50
2023-01-27T15:56:51.336Z,2.40
2023-01-27T15:59:22.775Z,2.40
2023-01-27T16:02:13.045Z,2.40
2023-01-27T16:04:40.224Z,2.40
2023-01-27T16:07:35.838Z,2.40
2023-01-27T16:10:04.450Z,2.50
2023-01-27T16:12:42.361Z,2.50
2023-01-27T16:15:15.555Z,2.50
2023-01-27T16:18:08.750Z,2.50
2023-01-27T16:20:58.519Z,2.50
2023-01-27T16:23:41.707Z,2.40
2023-01-27T16:26:24.970Z,2.40
2023-01-27T16:28:59.314Z,2.40
2023-01-27T16:31:30.411Z,2.40
2023-01-27T16:34:00.258Z,2.30
2023-01-27T16:36:31.260Z,2.30
2023-01-27T16:39:03.184Z,2.20
2023-01-27T16:41:36.155Z,2.20
2023-01-27T16:44:04.481Z,2.20
2023-01-27T16:46:46.455Z,2.20
2023-01-27T16:49:45.761Z,2.20
2023-01-27T16:52:32.379Z,2.20
2023-01-27T16:55:06.660Z,2.20
2023-01-27T16:57:41.416Z,2.20
2023-01-27T17:00:20.058Z,2.20
2023-01-27T17:02:47.690Z,2.20
2023-01-27T17:05:17.621Z,2.30
2023-01-27T17:08:14.285Z,2.30
2023-01-27T17:10:54.876Z,2.20
2023-01-27T17:13:46.394Z,2.20
2023-01-27T17:16:27.630Z,2.20
2023-01-27T17:19:01.139Z,2.20
2023-01-27T17:21:36.960Z,2.20
2023-01-27T17:24:23.832Z,2.10
2023-01-27T17:27:10.539Z,2.10
2023-01-27T17:29:40.940Z,2.10
2023-01-27T17:32:30.995Z,2.10
2023-01-27T17:35:01.744Z,2.20
2023-01-27T17:37:31.016Z,2.20
2023-01-27T17:39:59.755Z,2.20
2023-01-27T17:42:30.557Z,2.30
2023-01-27T17:45:23.497Z,2.20
2023-01-27T17:47:51.198Z,2.20
2023-01-27T17:50:24.458Z,2.20
2023-01-27T17:52:53.837Z,2.20
2023-01-27T17:55:22.906Z,2.20
2023-01-27T17:57:54.341Z,2.20
2023-01-27T18:00:25.761Z,2.20
2023-01-27T18:03:04.712Z,2.20
2023-01-27T18:05:33.867Z,2.20
2023-01-27T18:08:03.778Z,2.20
2023-01-27T18:10:33.449Z,2.20
2023-01-27T18:13:18.018Z,2.20
2023-01-27T18:16:03.729Z,2.20
2023-01-27T18:18:31.803Z,2.10
2023-01-27T18:21:04.491Z,2.20
2023-01-27T18:23:35.851Z,2.30
2023-01-27T18:26:25.739Z,2.40
2023-01-27T18:29:00.757Z,2.40
2023-01-27T18:31:34.517Z,2.40
2023-01-27T18:34:20.255Z,2.40
2023-01-27T18:37:06.232Z,2.30
2023-01-27T18:39:41.105Z,2.40
2023-01-27T18:42:19.253Z,2.30
2023-01-27T18:44:49.543Z,2.20
2023-01-27T18:47:19.531Z,2.30
2023-01-27T18:50:38.803Z,2.20
2023-01-27T18:53:20.998Z,2.20
2023-01-27T18:55:47.931Z,2.10
2023-01-27T18:58:14.805Z,2.10
2023-01-27T19:00:50.636Z,2.00
2023-01-27T19:03:26.826Z,2.10
2023-01-27T19:05:54.010Z,2.10
2023-01-27T19:08:23.241Z,2.10
2023-01-27T19:10:51.672Z,2.00
2023-01-27T19:13:18.935Z,2.00
2023-01-27T19:15:50.574Z,1.90
2023-01-27T19:18:32.073Z,1.80
2023-01-27T19:20:59.033Z,1.70
2023-01-27T19:23:26.246Z,1.60
2023-01-27T19:25:55.919Z,1.60
2023-01-27T19:28:33.066Z,1.50
2023-01-27T19:31:00.232Z,1.40
2023-01-27T19:33:28.532Z,1.30
2023-01-27T19:35:58.604Z,1.30
2023-01-27T19:38:27.950Z,1.30
2023-01-27T19:40:55.014Z,1.30
2023-01-27T19:43:22.267Z,1.30
2023-01-27T19:45:50.858Z,1.40
2023-01-27T19:48:20.337Z,1.30
2023-01-27T19:50:48.267Z,1.30
2023-01-27T19:53:18.396Z,1.30
2023-01-27T19:55:46.950Z,1.40
2023-01-27T19:58:24.867Z,1.40
2023-01-27T20:00:52.418Z,1.40
2023-01-27T20:03:19.625Z,1.50
2023-01-27T20:05:46.844Z,1.50
2023-01-27T20:08:19.392Z,1.50
2023-01-27T20:10:46.686Z,1.40
2023-01-27T20:13:16.297Z,1.50
2023-01-27T20:15:43.976Z,1.40
2023-01-27T20:18:15.878Z,1.40
2023-01-27T20:20:44.260Z,1.50
2023-01-27T20:23:15.511Z,1.50
2023-01-27T20:25:42.604Z,1.50
2023-01-27T20:28:10.419Z,1.60
2023-01-27T20:30:37.460Z,1.60
2023-01-27T20:33:04.912Z,1.70
2023-01-27T20:35:31.725Z,1.60
2023-01-27T20:37:58.623Z,1.60
2023-01-27T20:40:27.790Z,1.60
2023-01-27T20:42:54.922Z,1.60
2023-01-27T20:45:22.592Z,1.60
2023-01-27T20:47:54.255Z,1.60
2023-01-27T20:50:23.774Z,1.60
2023-01-27T20:52:52.307Z,1.60
2023-01-27T20:55:19.498Z,1.60
2023-01-27T20:57:47.380Z,1.60
2023-01-27T21:00:20.050Z,1.60
2023-01-27T21:02:47.597Z,1.60
2023-01-27T21:05:15.490Z,1.60
2023-01-27T21:07:42.887Z,1.60
2023-01-27T21:10:10.282Z,1.60
2023-01-27T21:12:37.079Z,1.60
2023-01-27T21:15:09.439Z,1.70
2023-01-27T21:17:36.372Z,1.70
2023-01-27T21:20:03.947Z,1.70
2023-01-27T21:22:30.979Z,1.70
2023-01-27T21:24:57.932Z,1.70
2023-01-27T21:27:24.804Z,1.70
2023-01-27T21:29:52.788Z,1.70
2023-01-27T21:32:19.683Z,1.60
2023-01-27T21:34:46.564Z,1.60
2023-01-27T21:37:13.386Z,1.60
2023-01-27T21:39:40.166Z,1.60
2023-01-27T21:42:07.072Z,1.60
2023-01-27T21:44:52.730Z,1.60
2023-01-27T21:47:19.976Z,1.70
2023-01-27T21:50:02.742Z,1.60
2023-01-27T21:52:39.682Z,1.70
2023-01-27T21:55:24.466Z,1.60
2023-01-27T21:57:53.465Z,1.60
2023-01-27T22:00:23.380Z,1.60
2023-01-27T22:02:54.649Z,1.60
2023-01-27T22:05:21.617Z,1.60
2023-01-27T22:07:48.642Z,1.60
2023-01-27T22:10:17.916Z,1.60
2023-01-27T22:12:45.759Z,1.60
2023-01-27T22:15:16.817Z,1.60
2023-01-27T22:17:44.265Z,1.60
2023-01-27T22:20:16.206Z,1.60
2023-01-27T22:22:44.424Z,1.60
2023-01-27T22:25:14.854Z,1.50
2023-01-27T22:27:43.010Z,1.60
2023-01-27T22:30:16.950Z,1.50
2023-01-27T22:32:44.567Z,1.50
2023-01-27T22:35:14.488Z,1.40
2023-01-27T22:37:41.732Z,1.40
2023-01-27T22:40:09.850Z,1.40
2023-01-27T22:42:39.698Z,1.30
2023-01-27T22:45:08.665Z,1.30
2023-01-27T22:47:35.503Z,1.30
2023-01-27T22:50:03.153Z,1.30
2023-01-27T22:52:30.089Z,1.10
2023-01-27T22:54:56.917Z,1.20
2023-01-27T22:57:25.348Z,1.20
2023-01-27T22:59:52.151Z,1.20
2023-01-27T23:02:19.221Z,1.20
2023-01-27T23:04:46.020Z,1.30
2023-01-27T23:07:12.864Z,1.30
2023-01-27T23:09:39.692Z,1.20
2023-01-27T23:12:06.740Z,1.30
2023-01-27T23:14:34.559Z,1.30
2023-01-27T23:17:01.367Z,1.30
2023-01-27T23:19:28.801Z,1.30
2023-01-27T23:21:55.699Z,1.30
2023-01-27T23:24:22.690Z,1.30
2023-01-27T23:26:49.605Z,1.40
2023-01-27T23:29:24.583Z,1.50
2023-01-27T23:31:52.746Z,1.40
2023-01-27T23:34:20.117Z,1.40
2023-01-27T23:36:47.895Z,1.40
2023-01-27T23:39:16.441Z,1.30
2023-01-27T23:41:43.481Z,1.30
2023-01-27T23:44:11.613Z,1.30
2023-01-27T23:46:39.194Z,1.30
2023-01-27T23:49:06.153Z,1.20
2023-01-27T23:51:33.087Z,1.20
2023-01-27T23:54:00.046Z,1.20
2023-01-27T23:56:26.878Z,1.20
2023-01-27T23:58:53.736Z,1.20
